createdAt,value
2022-12-20T00:01:24.499Z,98731.31
2022-12-20T00:03:52.992Z,98739.19
2022-12-20T00:06:20.815Z,98719.06
2022-12-20T00:08:52.570Z,98713.78
2022-12-20T00:11:19.164Z,98704.19
2022-12-20T00:13:47.240Z,98708.47
2022-12-20T00:16:17.033Z,98704.13
2022-12-20T00:18:43.985Z,98721.50
2022-12-20T00:21:13.281Z,98715.41
2022-12-20T00:23:40.700Z,98720.56
2022-12-20T00:26:13.275Z,98723.22
2022-12-20T00:28:41.608Z,98730.94
2022-12-20T00:31:13.462Z,98738.78
2022-12-20T00:33:41.189Z,98741.41
2022-12-20T00:36:09.198Z,98749.31
2022-12-20T00:38:36.188Z,98757.19
2022-12-20T00:41:13.099Z,98750.22
2022-12-20T00:43:40.708Z,98757.19
2022-12-20T00:46:08.731Z,98771.91
2022-12-20T00:48:36.268Z,98772.00
2022-12-20T00:51:06.618Z,98776.38
2022-12-20T00:53:34.236Z,98767.78
2022-12-20T00:56:01.558Z,98776.38
2022-12-20T00:58:28.688Z,98770.28
2022-12-20T01:00:56.936Z,98774.59
2022-12-20T01:03:25.171Z,98772.88
2022-12-20T01:05:57.414Z,98772.75
2022-12-20T01:08:25.687Z,98771.06
2022-12-20T01:11:06.654Z,98768.53
2022-12-20T01:13:35.551Z,98770.13
2022-12-20T01:16:13.433Z,98766.75
2022-12-20T01:18:40.170Z,98769.34
2022-12-20T01:21:10.394Z,98771.81
2022-12-20T01:23:37.191Z,98781.47
2022-12-20T01:26:06.081Z,98780.56
2022-12-20T01:28:33.196Z,98781.38
2022-12-20T01:31:00.245Z,98783.97
2022-12-20T01:33:26.976Z,98776.97
2022-12-20T01:36:03.873Z,98762.16
2022-12-20T01:38:30.790Z,98768.31
2022-12-20T01:40:58.110Z,98769.16
2022-12-20T01:43:26.792Z,98764.66
2022-12-20T01:45:53.548Z,98768.25
2022-12-20T01:48:26.362Z,98755.09
2022-12-20T01:50:53.750Z,98741.09
2022-12-20T01:53:24.608Z,98746.25
2022-12-20T01:55:51.254Z,98727.03
2022-12-20T01:58:19.939Z,98720.03
2022-12-20T02:00:47.577Z,98716.56
2022-12-20T02:03:15.481Z,98706.06
2022-12-20T02:05:45.696Z,98700.03
2022-12-20T02:08:17.031Z,98693.03
2022-12-20T02:11:06.426Z,98693.97
2022-12-20T02:14:05.514Z,98689.63
2022-12-20T02:16:43.417Z,98677.47
2022-12-20T02:19:50.759Z,98677.38
2022-12-20T02:22:44.925Z,98677.44
2022-12-20T02:25:20.618Z,98676.66
2022-12-20T02:28:07.081Z,98660.94
2022-12-20T02:30:38.219Z,98667.06
2022-12-20T02:33:08.688Z,98651.41
2022-12-20T02:35:37.609Z,98651.41
2022-12-20T02:38:25.063Z,98645.19
2022-12-20T02:40:56.915Z,98641.84
2022-12-20T02:43:45.753Z,98659.41
2022-12-20T02:46:13.660Z,98661.97
2022-12-20T02:48:41.313Z,98671.63
2022-12-20T02:51:10.268Z,98669.91
2022-12-20T02:53:38.317Z,98671.63
2022-12-20T02:56:16.936Z,98688.41
2022-12-20T02:58:59.061Z,98691.13
2022-12-20T03:01:33.716Z,98690.16
2022-12-20T03:04:01.478Z,98689.31
2022-12-20T03:06:28.297Z,98685.81
2022-12-20T03:08:54.992Z,98685.81
2022-12-20T03:11:21.540Z,98682.25
2022-12-20T03:13:48.196Z,98668.22
2022-12-20T03:16:14.797Z,98668.16
2022-12-20T03:18:41.403Z,98662.84
2022-12-20T03:21:08.079Z,98655.78
2022-12-20T03:23:34.738Z,98659.41
2022-12-20T03:26:01.609Z,98662.06
2022-12-20T03:28:28.232Z,98654.16
2022-12-20T03:30:54.995Z,98658.50
2022-12-20T03:33:21.711Z,98637.53
2022-12-20T03:35:48.711Z,98653.13
2022-12-20T03:38:15.391Z,98655.66
2022-12-20T03:40:42.044Z,98646.97
2022-12-20T03:43:08.684Z,98651.31
2022-12-20T03:45:35.299Z,98638.22
2022-12-20T03:48:01.867Z,98637.38
2022-12-20T03:50:28.527Z,98636.66
2022-12-20T03:52:55.177Z,98629.44
2022-12-20T03:55:21.793Z,98623.16
2022-12-20T03:57:48.313Z,98623.97
2022-12-20T04:00:15.746Z,98630.81
2022-12-20T04:02:42.433Z,98630.69
2022-12-20T04:05:09.314Z,98617.50
2022-12-20T04:07:35.995Z,98625.28
2022-12-20T04:10:02.614Z,98625.22
2022-12-20T04:12:29.323Z,98618.88
2022-12-20T04:14:56.106Z,98631.16
2022-12-20T04:17:22.744Z,98628.47
2022-12-20T04:19:49.367Z,98633.44
2022-12-20T04:22:15.938Z,98623.00
2022-12-20T04:24:42.574Z,98628.09
2022-12-20T04:27:09.167Z,98623.06
2022-12-20T04:29:37.027Z,98623.97
2022-12-20T04:32:03.904Z,98624.81
2022-12-20T04:34:30.544Z,98623.09
2022-12-20T04:36:57.156Z,98623.97
2022-12-20T04:39:23.900Z,98608.28
2022-12-20T04:41:50.543Z,98617.94
2022-12-20T04:44:17.195Z,98611.84
2022-12-20T04:46:43.832Z,98616.28
2022-12-20T04:49:10.449Z,98615.31
2022-12-20T04:51:37.087Z,98616.19
2022-12-20T04:54:03.782Z,98611.94
2022-12-20T04:56:30.462Z,98605.63
2022-12-20T04:58:58.940Z,98618.00
2022-12-20T05:01:26.455Z,98624.16
2022-12-20T05:03:53.857Z,98633.91
2022-12-20T05:06:20.703Z,98635.78
2022-12-20T05:08:48.013Z,98640.06
2022-12-20T05:11:15.012Z,98628.69
2022-12-20T05:13:41.866Z,98631.41
2022-12-20T05:16:08.723Z,98635.84
2022-12-20T05:18:36.065Z,98632.41
2022-12-20T05:21:21.837Z,98628.19
2022-12-20T05:24:07.781Z,98616.03
2022-12-20T05:26:37.239Z,98595.16
2022-12-20T05:29:04.990Z,98597.56
2022-12-20T05:31:32.058Z,98572.53
2022-12-20T05:33:58.780Z,98579.19
2022-12-20T05:36:25.421Z,98584.63
2022-12-20T05:38:53.029Z,98594.44
2022-12-20T05:41:22.064Z,98592.69
2022-12-20T05:43:48.709Z,98587.59
2022-12-20T05:46:15.538Z,98589.25
2022-12-20T05:48:42.340Z,98597.16
2022-12-20T05:51:10.228Z,98606.75
2022-12-20T05:53:36.882Z,98609.31
2022-12-20T05:56:03.951Z,98609.31
2022-12-20T05:58:30.622Z,98603.97
2022-12-20T06:00:57.537Z,98592.00
2022-12-20T06:03:24.250Z,98587.84
2022-12-20T06:05:50.879Z,98593.19
2022-12-20T06:08:17.527Z,98594.00
2022-12-20T06:10:44.359Z,98597.47
2022-12-20T06:13:11.425Z,98599.97
2022-12-20T06:15:38.619Z,98611.09
2022-12-20T06:18:06.230Z,98610.09
2022-12-20T06:20:34.557Z,98594.19
2022-12-20T06:23:01.819Z,98599.31
2022-12-20T06:25:28.940Z,98596.75
2022-12-20T06:27:55.609Z,98603.59
2022-12-20T06:30:23.953Z,98602.59
2022-12-20T06:32:55.635Z,98592.09
2022-12-20T06:35:22.195Z,98584.50
2022-12-20T06:37:48.849Z,98581.97
2022-12-20T06:40:15.632Z,98591.84
2022-12-20T06:42:42.415Z,98593.66
2022-12-20T06:45:09.739Z,98591.09
2022-12-20T06:47:36.758Z,98601.63
2022-12-20T06:50:05.980Z,98605.22
2022-12-20T06:52:32.676Z,98613.25
2022-12-20T06:54:59.223Z,98621.97
2022-12-20T06:57:25.867Z,98622.03
2022-12-20T06:59:52.536Z,98624.75
2022-12-20T07:02:19.409Z,98619.63
2022-12-20T07:04:46.124Z,98618.59
2022-12-20T07:07:13.975Z,98620.81
2022-12-20T07:09:42.893Z,98614.31
2022-12-20T07:12:10.432Z,98618.56
2022-12-20T07:14:37.069Z,98604.75
2022-12-20T07:17:04.859Z,98603.00
2022-12-20T07:19:31.647Z,98600.22
2022-12-20T07:21:59.315Z,98595.03
2022-12-20T07:24:26.201Z,98582.38
2022-12-20T07:26:52.835Z,98591.31
2022-12-20T07:29:19.597Z,98596.94
2022-12-20T07:31:46.539Z,98587.00
2022-12-20T07:34:13.316Z,98586.91
2022-12-20T07:36:40.039Z,98580.66
2022-12-20T07:39:06.733Z,98581.31
2022-12-20T07:41:33.279Z,98587.72
2022-12-20T07:43:59.933Z,98581.66
2022-12-20T07:46:27.030Z,98586.91
2022-12-20T07:48:54.988Z,98577.44
2022-12-20T07:51:31.803Z,98587.16
2022-12-20T07:54:04.151Z,98585.38
2022-12-20T07:56:41.072Z,98575.03
2022-12-20T07:59:12.101Z,98584.50
2022-12-20T08:01:40.420Z,98574.00
2022-12-20T08:04:13.166Z,98561.25
2022-12-20T08:06:41.080Z,98568.00
2022-12-20T08:09:12.882Z,98542.28
2022-12-20T08:11:41.398Z,98552.41
2022-12-20T08:14:08.529Z,98564.84
2022-12-20T08:16:35.424Z,98578.63
2022-12-20T08:19:02.060Z,98561.75
2022-12-20T08:21:29.320Z,98567.97
2022-12-20T08:23:56.806Z,98575.09
2022-12-20T08:26:23.641Z,98573.94
2022-12-20T08:28:50.391Z,98584.53
2022-12-20T08:31:17.184Z,98584.69
2022-12-20T08:33:43.871Z,98578.75
2022-12-20T08:36:12.736Z,98576.03
2022-12-20T08:38:40.124Z,98585.00
2022-12-20T08:41:11.163Z,98587.16
2022-12-20T08:43:39.332Z,98580.56
2022-12-20T08:46:07.354Z,98570.25
2022-12-20T08:48:34.540Z,98578.56
2022-12-20T08:51:04.029Z,98586.75
2022-12-20T08:53:31.601Z,98578.09
2022-12-20T08:56:27.900Z,98565.88
2022-12-20T08:58:54.619Z,98556.38
2022-12-20T09:01:22.979Z,98559.94
2022-12-20T09:03:50.152Z,98538.94
2022-12-20T09:06:22.926Z,98550.25
2022-12-20T09:08:50.402Z,98550.91
2022-12-20T09:11:20.917Z,98542.91
2022-12-20T09:13:50.391Z,98535.22
2022-12-20T09:16:21.527Z,98529.34
2022-12-20T09:18:52.847Z,98534.09
2022-12-20T09:21:20.307Z,98513.47
2022-12-20T09:23:48.500Z,98519.16
2022-12-20T09:26:16.537Z,98512.50
2022-12-20T09:28:44.323Z,98518.06
2022-12-20T09:31:13.665Z,98509.34
2022-12-20T09:33:40.535Z,98501.13
2022-12-20T09:36:11.256Z,98498.94
2022-12-20T09:38:37.886Z,98486.31
2022-12-20T09:41:07.292Z,98477.63
2022-12-20T09:43:34.905Z,98469.84
2022-12-20T09:46:04.145Z,98466.34
2022-12-20T09:48:35.736Z,98464.41
2022-12-20T09:51:10.998Z,98475.16
2022-12-20T09:53:56.318Z,98467.19
2022-12-20T09:56:28.144Z,98479.28
2022-12-20T09:59:04.209Z,98474.22
2022-12-20T10:01:38.804Z,98492.47
2022-12-20T10:04:12.764Z,98484.66
2022-12-20T10:07:17.124Z,98488.25
2022-12-20T10:10:05.178Z,98485.88
2022-12-20T10:13:03.695Z,98492.94
2022-12-20T10:15:33.231Z,98499.94
2022-12-20T10:18:15.840Z,98503.44
2022-12-20T10:21:17.542Z,98498.94
2022-12-20T10:23:53.668Z,98505.88
2022-12-20T10:26:22.709Z,98512.84
2022-12-20T10:28:54.087Z,98504.13
2022-12-20T10:31:22.013Z,98489.81
2022-12-20T10:33:48.816Z,98492.28
2022-12-20T10:36:19.762Z,98486.38
2022-12-20T10:38:50.824Z,98488.19
2022-12-20T10:41:25.675Z,98485.53
2022-12-20T10:43:56.412Z,98485.69
2022-12-20T10:46:24.553Z,98478.53
2022-12-20T10:48:51.764Z,98473.38
2022-12-20T10:51:21.974Z,98475.81
2022-12-20T10:54:03.262Z,98476.88
2022-12-20T10:56:31.542Z,98475.66
2022-12-20T10:59:01.711Z,98467.88
2022-12-20T11:01:35.792Z,98463.31
2022-12-20T11:04:06.036Z,98468.38
2022-12-20T11:06:38.464Z,98453.28
2022-12-20T11:09:35.233Z,98461.56
2022-12-20T11:12:05.214Z,98452.44
2022-12-20T11:14:39.288Z,98455.88
2022-12-20T11:17:20.262Z,98458.47
2022-12-20T11:20:13.749Z,98458.31
2022-12-20T11:23:09.249Z,98440.84
2022-12-20T11:25:52.208Z,98443.69
2022-12-20T11:28:46.646Z,98449.03
2022-12-20T11:31:24.561Z,98445.16
2022-12-20T11:33:54.301Z,98426.78
2022-12-20T11:36:42.595Z,98420.78
2022-12-20T11:39:40.597Z,98420.72
2022-12-20T11:42:26.298Z,98414.72
2022-12-20T11:45:10.358Z,98413.78
2022-12-20T11:47:39.959Z,98411.28
2022-12-20T11:50:27.944Z,98408.84
2022-12-20T11:53:00.390Z,98399.19
2022-12-20T11:55:32.377Z,98396.44
2022-12-20T11:58:20.745Z,98400.72
2022-12-20T12:01:16.797Z,98388.16
2022-12-20T12:04:04.410Z,98389.50
2022-12-20T12:06:37.066Z,98384.50
2022-12-20T12:09:28.071Z,98371.25
2022-12-20T12:12:08.523Z,98377.81
2022-12-20T12:14:56.272Z,98403.75
2022-12-20T12:17:48.186Z,98401.19
2022-12-20T12:20:39.035Z,98382.63
2022-12-20T12:23:42.949Z,98380.78
2022-12-20T12:26:20.523Z,98365.91
2022-12-20T12:28:52.863Z,98361.50
2022-12-20T12:31:27.079Z,98352.00
2022-12-20T12:34:06.736Z,98347.09
2022-12-20T12:36:50.775Z,98343.56
2022-12-20T12:39:40.073Z,98351.72
2022-12-20T12:42:34.134Z,98348.72
2022-12-20T12:45:05.845Z,98351.50
2022-12-20T12:47:46.097Z,98351.63
2022-12-20T12:50:28.291Z,98362.31
2022-12-20T12:53:18.843Z,98364.88
2022-12-20T12:55:50.929Z,98363.16
2022-12-20T12:58:23.555Z,98359.47
2022-12-20T13:00:50.373Z,98364.13
2022-12-20T13:03:55.278Z,98355.03
2022-12-20T13:06:30.963Z,98359.28
2022-12-20T13:09:00.586Z,98346.28
2022-12-20T13:11:29.906Z,98349.41
2022-12-20T13:14:17.916Z,98346.72
2022-12-20T13:19:37.334Z,98327.22
2022-12-20T13:22:13.049Z,98324.50
2022-12-20T13:24:48.652Z,98314.97
2022-12-20T13:27:41.253Z,98298.09
2022-12-20T13:30:07.826Z,98303.31
2022-12-20T13:32:49.504Z,98291.22
2022-12-20T13:35:25.268Z,98299.88
2022-12-20T13:37:56.145Z,98305.25
2022-12-20T13:40:44.373Z,98295.88
2022-12-20T13:43:26.265Z,98307.50
2022-12-20T13:46:10.421Z,98311.94
2022-12-20T13:48:52.174Z,98306.75
2022-12-20T13:51:24.582Z,98299.72
2022-12-20T13:54:00.863Z,98309.31
2022-12-20T13:56:27.322Z,98309.47
2022-12-20T13:58:55.661Z,98316.56
2022-12-20T14:01:24.818Z,98307.91
2022-12-20T14:03:53.350Z,98313.38
2022-12-20T14:06:26.910Z,98323.28
2022-12-20T14:08:54.709Z,98312.97
2022-12-20T14:11:26.812Z,98301.44
2022-12-20T14:14:00.469Z,98308.91
2022-12-20T14:16:29.694Z,98302.03
2022-12-20T14:19:13.217Z,98311.53
2022-12-20T14:21:46.049Z,98303.50
2022-12-20T14:24:21.116Z,98310.72
2022-12-20T14:26:52.079Z,98305.38
2022-12-20T14:29:24.005Z,98311.34
2022-12-20T14:31:51.163Z,98296.28
2022-12-20T14:34:29.542Z,98287.41
2022-12-20T14:37:30.222Z,98288.31
2022-12-20T14:40:04.664Z,98272.47
2022-12-20T14:42:36.832Z,98270.72
2022-12-20T14:45:09.486Z,98273.13
2022-12-20T14:47:37.780Z,98273.94
2022-12-20T14:50:17.325Z,98275.00
2022-12-20T14:52:44.759Z,98276.72
2022-12-20T14:55:25.593Z,98278.94
2022-12-20T14:57:55.038Z,98281.22
2022-12-20T15:00:30.819Z,98282.56
2022-12-20T15:03:00.888Z,98270.28
2022-12-20T15:05:34.457Z,98270.41
2022-12-20T15:08:17.097Z,98268.59
2022-12-20T15:10:54.394Z,98261.47
2022-12-20T15:13:25.389Z,98265.78
2022-12-20T15:15:52.105Z,98250.97
2022-12-20T15:18:21.541Z,98242.31
2022-12-20T15:21:05.569Z,98248.75
2022-12-20T15:23:34.566Z,98249.69
2022-12-20T15:26:01.109Z,98255.03
2022-12-20T15:28:28.013Z,98249.28
2022-12-20T15:30:55.411Z,98261.16
2022-12-20T15:33:34.600Z,98258.81
2022-12-20T15:36:01.132Z,98260.97
2022-12-20T15:38:54.963Z,98239.19
2022-12-20T15:41:20.314Z,98241.13
2022-12-20T15:43:48.360Z,98232.19
2022-12-20T15:46:14.935Z,98220.38
2022-12-20T15:48:41.682Z,98222.31
2022-12-20T15:51:37.008Z,98224.75
2022-12-20T15:54:17.266Z,98231.88
2022-12-20T15:56:43.769Z,98233.34
2022-12-20T15:59:57.011Z,98228.28
2022-12-20T16:01:59.547Z,98222.53
2022-12-20T16:04:28.638Z,98219.81
2022-12-20T16:06:55.505Z,98216.28
2022-12-20T16:09:25.667Z,98209.34
2022-12-20T16:11:52.568Z,98214.66
2022-12-20T16:14:21.368Z,98214.72
2022-12-20T16:16:50.186Z,98209.16
2022-12-20T16:19:17.383Z,98213.66
2022-12-20T16:21:47.872Z,98200.28
2022-12-20T16:24:17.159Z,98216.19
2022-12-20T16:26:44.033Z,98213.66
2022-12-20T16:29:10.583Z,98216.44
2022-12-20T16:31:44.495Z,98188.94
2022-12-20T16:34:16.957Z,98203.03
2022-12-20T16:36:44.337Z,98205.88
2022-12-20T16:39:11.347Z,98207.09
2022-12-20T16:41:41.225Z,98199.38
2022-12-20T16:44:13.386Z,98194.31
2022-12-20T16:46:40.149Z,98209.53
2022-12-20T16:49:06.943Z,98219.44
2022-12-20T16:51:43.591Z,98228.38
2022-12-20T16:54:19.995Z,98238.72
2022-12-20T16:56:47.868Z,98243.56
2022-12-20T16:59:23.353Z,98243.69
2022-12-20T17:01:53.235Z,98243.78
2022-12-20T17:04:21.368Z,98246.47
2022-12-20T17:06:48.426Z,98235.09
2022-12-20T17:09:18.401Z,98239.75
2022-12-20T17:11:45.439Z,98225.84
2022-12-20T17:14:13.690Z,98226.72
2022-12-20T17:16:41.230Z,98228.63
2022-12-20T17:19:07.924Z,98229.63
2022-12-20T17:24:23.619Z,98225.91
2022-12-20T17:26:50.689Z,98248.84
2022-12-20T17:29:17.977Z,98238.44
2022-12-20T17:31:46.602Z,98234.19
2022-12-20T17:34:20.291Z,98243.94
2022-12-20T17:36:48.784Z,98235.31
2022-12-20T17:39:15.908Z,98236.03
2022-12-20T17:41:44.078Z,98239.56
2022-12-20T17:44:25.240Z,98237.63
2022-12-20T17:46:53.026Z,98231.75
2022-12-20T17:49:20.360Z,98236.81
2022-12-20T17:51:47.128Z,98242.50
2022-12-20T17:54:18.776Z,98248.94
2022-12-20T17:56:46.007Z,98236.25
2022-12-20T17:59:14.023Z,98224.56
2022-12-20T18:01:41.754Z,98227.41
2022-12-20T18:04:11.254Z,98210.09
2022-12-20T18:06:39.566Z,98206.59
2022-12-20T18:09:12.170Z,98203.06
2022-12-20T18:11:38.883Z,98201.13
2022-12-20T18:14:05.560Z,98170.66
2022-12-20T18:16:35.235Z,98173.84
2022-12-20T18:22:49.613Z,98172.91
2022-12-20T18:25:18.262Z,98179.13
2022-12-20T18:27:44.930Z,98193.00
2022-12-20T18:30:13.152Z,98196.63
2022-12-20T18:32:41.049Z,98201.88
2022-12-20T18:35:08.360Z,98207.78
2022-12-20T18:37:34.964Z,98214.75
2022-12-20T18:40:01.449Z,98205.91
2022-12-20T18:42:27.988Z,98214.47
2022-12-20T18:44:54.606Z,98210.09
2022-12-20T18:47:21.174Z,98214.16
2022-12-20T18:49:47.880Z,98213.38
2022-12-20T18:52:14.419Z,98189.09
2022-12-20T18:54:41.145Z,98179.16
2022-12-20T18:57:07.837Z,98177.47
2022-12-20T18:59:34.918Z,98168.28
2022-12-20T19:02:01.959Z,98164.69
2022-12-20T19:04:28.610Z,98152.44
2022-12-20T19:06:55.296Z,98148.31
2022-12-20T19:09:22.484Z,98164.97
2022-12-20T19:11:56.219Z,98158.50
2022-12-20T19:14:23.247Z,98153.34
2022-12-20T19:16:50.301Z,98153.13
2022-12-20T19:19:17.863Z,98153.03
2022-12-20T19:21:45.083Z,98159.97
2022-12-20T19:24:11.977Z,98154.28
2022-12-20T19:26:39.689Z,98150.75
2022-12-20T19:29:06.871Z,98145.59
2022-12-20T19:31:36.686Z,98159.44
2022-12-20T19:34:07.386Z,98155.06
2022-12-20T19:36:41.878Z,98152.69
2022-12-20T19:39:13.591Z,98158.88
2022-12-20T19:41:40.922Z,98154.63
2022-12-20T19:44:07.433Z,98140.63
2022-12-20T19:46:33.974Z,98148.56
2022-12-20T19:49:00.697Z,98146.69
2022-12-20T19:51:28.455Z,98150.25
2022-12-20T19:53:56.997Z,98142.47
2022-12-20T19:56:26.896Z,98145.88
2022-12-20T19:58:54.903Z,98138.91
2022-12-20T20:01:25.756Z,98140.94
2022-12-20T20:03:56.491Z,98132.94
2022-12-20T20:06:24.329Z,98131.72
2022-12-20T20:08:51.295Z,98135.16
2022-12-20T20:11:19.289Z,98135.03
2022-12-20T20:13:46.476Z,98146.22
2022-12-20T20:16:17.006Z,98132.09
2022-12-20T20:18:49.196Z,98126.84
2022-12-20T20:21:19.845Z,98124.16
2022-12-20T20:23:46.654Z,98126.78
2022-12-20T20:26:15.846Z,98125.97
2022-12-20T20:28:45.074Z,98124.16
2022-12-20T20:31:13.959Z,98133.00
2022-12-20T20:33:40.930Z,98132.06
2022-12-20T20:36:08.065Z,98128.06
2022-12-20T20:38:35.252Z,98128.34
2022-12-20T20:41:01.930Z,98123.84
2022-12-20T20:43:29.992Z,98122.94
2022-12-20T20:45:56.675Z,98121.16
2022-12-20T20:48:23.250Z,98109.94
2022-12-20T20:50:50.439Z,98107.22
2022-12-20T20:53:16.952Z,98094.19
2022-12-20T20:55:43.619Z,98100.47
2022-12-20T20:58:10.377Z,98107.44
2022-12-20T21:00:37.042Z,98106.63
2022-12-20T21:03:04.171Z,98108.94
2022-12-20T21:08:19.431Z,98119.44
2022-12-20T21:10:46.202Z,98124.75
2022-12-20T21:13:12.646Z,98133.34
2022-12-20T21:15:40.876Z,98127.28
2022-12-20T21:18:07.405Z,98125.50
2022-12-20T21:20:34.119Z,98129.13
2022-12-20T21:23:01.616Z,98135.19
2022-12-20T21:25:28.484Z,98146.91
2022-12-20T21:27:56.537Z,98128.50
2022-12-20T21:30:23.773Z,98131.31
2022-12-20T21:32:50.791Z,98127.72
2022-12-20T21:35:17.446Z,98113.72
2022-12-20T21:37:43.955Z,98127.81
2022-12-20T21:40:10.986Z,98139.34
2022-12-20T21:42:37.850Z,98138.47
2022-12-20T21:45:04.924Z,98130.63
2022-12-20T21:47:31.527Z,98142.91
2022-12-20T21:49:58.073Z,98137.75
2022-12-20T21:52:24.667Z,98132.16
2022-12-20T21:54:51.278Z,98136.28
2022-12-20T21:57:17.960Z,98134.78
2022-12-20T21:59:44.478Z,98141.09
2022-12-20T22:02:12.482Z,98147.06
2022-12-20T22:04:39.378Z,98145.44
2022-12-20T22:07:06.097Z,98147.44
2022-12-20T22:09:32.651Z,98145.94
2022-12-20T22:11:59.156Z,98161.88
2022-12-20T22:14:26.084Z,98153.41
2022-12-20T22:16:54.831Z,98151.81
2022-12-20T22:19:21.528Z,98162.66
2022-12-20T22:21:52.343Z,98155.84
2022-12-20T22:24:24.051Z,98147.16
2022-12-20T22:26:50.573Z,98155.38
2022-12-20T22:29:17.097Z,98158.94
2022-12-20T22:31:43.833Z,98154.03
2022-12-20T22:34:10.454Z,98150.50
2022-12-20T22:36:37.270Z,98141.09
2022-12-20T22:39:04.168Z,98148.06
2022-12-20T22:41:34.987Z,98136.84
2022-12-20T22:44:02.493Z,98144.06
2022-12-20T22:46:29.975Z,98135.34
2022-12-20T22:48:58.005Z,98126.03
2022-12-20T22:51:27.265Z,98120.06
2022-12-20T22:53:54.314Z,98117.22
2022-12-20T22:56:21.806Z,98111.25
2022-12-20T22:58:48.848Z,98109.50
2022-12-20T23:01:17.392Z,98114.63
2022-12-20T23:03:44.644Z,98114.72
2022-12-20T23:06:17.224Z,98111.16
2022-12-20T23:08:44.282Z,98109.38
2022-12-20T23:11:35.823Z,98109.41
2022-12-20T23:14:22.439Z,98101.53
2022-12-20T23:16:49.381Z,98094.41
2022-12-20T23:19:15.855Z,98086.56
2022-12-20T23:22:01.077Z,98092.50
2022-12-20T23:24:27.733Z,98100.34
2022-12-20T23:26:54.267Z,98098.63
2022-12-20T23:29:20.992Z,98090.81
2022-12-20T23:31:47.623Z,98088.81
2022-12-20T23:34:14.335Z,98088.09
2022-12-20T23:36:40.954Z,98090.63
2022-12-20T23:39:08.124Z,98089.97
2022-12-20T23:41:34.915Z,98081.19
2022-12-20T23:44:03.984Z,98082.97
2022-12-20T23:46:30.544Z,98077.63
2022-12-20T23:48:57.192Z,98085.38
2022-12-20T23:51:23.761Z,98074.06
2022-12-20T23:53:53.506Z,98070.63
2022-12-20T23:56:21.707Z,98065.34
2022-12-20T23:58:54.387Z,98063.59
